< < Back
Terminal Aerodrome Forecast


Current Version              Previous Versions:   1  2  3  4  5  6  7  8  9  

Terminal Aerodrome Forecast

609
FTUS42 KCHS 210200 AAA
TAFCHS
TAF AMD
KCHS 210216Z 2102/2124 VRB03KT P6SM SCT035 BKN050
     FM210500 VRB03KT P6SM VCSH SCT020 BKN040
     FM211200 31007G12KT P6SM SCT040 SCT090
     FM211700 27008G15KT P6SM SKC=



Latest METAR

833
SAUS80 KWBC 211000
MTRCHS
METAR KCHS 210956Z 00000KT 10SM FEW070 17/15 A2996 RMK AO2 SLP144
T01720150


USA.gov is the U.S. government's official web portal to all federal, state and local government web resources and services.